Time,TemperatureF,DewpointF,PressureIn,WindDirection,WindDirectionDegrees,WindSpeedMPH,WindSpeedGustMPH,Humidity,HourlyPrecipIn,Conditions,Clouds,dailyrainin,SoftwareType,DateUTC
2013-03-31 00:14:00,46.8,44.0,29.88,West,273,5.0,9.0,88,0.00,,,0.00,weatherlink.com 1.10,2013-03-31 05:14:00,
2013-03-31 00:29:00,46.8,44.0,29.88,West,269,7.0,9.0,88,0.00,,,0.00,weatherlink.com 1.10,2013-03-31 05:29:00,
2013-03-31 00:44:00,46.7,44.0,29.88,West,271,4.0,8.0,89,0.00,,,0.00,weatherlink.com 1.10,2013-03-31 05:44:00,
2013-03-31 00:59:00,46.7,44.0,29.88,West,272,4.0,8.0,89,0.00,,,0.00,weatherlink.com 1.10,2013-03-31 05:59:00,
2013-03-31 01:14:00,46.5,44.0,29.87,WNW,289,3.0,8.0,89,0.00,,,0.00,weatherlink.com 1.10,2013-03-31 06:14:00,
2013-03-31 01:29:00,46.7,44.0,29.87,WSW,250,3.0,10.0,90,0.00,,,0.00,weatherlink.com 1.10,2013-03-31 06:29:00,
2013-03-31 01:44:00,46.7,44.0,29.87,NW,319,5.0,8.0,90,0.00,,,0.00,weatherlink.com 1.10,2013-03-31 06:44:00,
2013-03-31 01:59:00,46.5,44.0,29.86,West,277,3.0,8.0,90,0.00,,,0.00,weatherlink.com 1.10,2013-03-31 06:59:00,
2013-03-31 02:14:00,46.3,44.0,29.86,NW,304,3.0,11.0,91,0.00,,,0.00,weatherlink.com 1.10,2013-03-31 07:14:00,
2013-03-31 02:29:00,45.9,44.0,29.86,NW,322,1.0,7.0,91,0.00,,,0.00,weatherlink.com 1.10,2013-03-31 07:29:00,
2013-03-31 02:44:00,45.8,43.0,29.86,NNW,331,3.0,8.0,91,0.00,,,0.00,weatherlink.com 1.10,2013-03-31 07:44:00,
2013-03-31 03:00:00,45.7,43.0,29.85,NW,309,2.0,8.0,91,0.00,,,0.00,weatherlink.com 1.10,2013-03-31 08:00:00,
2013-03-31 03:15:00,45.6,43.0,29.86,NW,312,5.0,9.0,91,0.00,,,0.00,weatherlink.com 1.10,2013-03-31 08:15:00,
2013-03-31 03:30:00,45.6,43.0,29.86,NW,308,2.0,7.0,91,0.00,,,0.00,weatherlink.com 1.10,2013-03-31 08:30:00,
2013-03-31 03:45:00,45.3,43.0,29.86,WNW,301,1.0,7.0,91,0.00,,,0.00,weatherlink.com 1.10,2013-03-31 08:45:00,
2013-03-31 04:00:00,45.4,43.0,29.85,WNW,298,4.0,7.0,92,0.00,,,0.00,weatherlink.com 1.10,2013-03-31 09:00:00,
2013-03-31 04:15:00,45.4,43.0,29.85,NW,313,5.0,6.0,92,0.00,,,0.00,weatherlink.com 1.10,2013-03-31 09:15:00,
2013-03-31 04:30:00,45.5,43.0,29.85,NW,319,3.0,7.0,92,0.00,,,0.00,weatherlink.com 1.10,2013-03-31 09:30:00,
2013-03-31 04:45:00,45.8,44.0,29.86,NNW,342,4.0,8.0,92,0.00,,,0.00,weatherlink.com 1.10,2013-03-31 09:45:00,
2013-03-31 05:00:00,45.7,44.0,29.86,NW,316,4.0,8.0,93,0.00,,,0.00,weatherlink.com 1.10,2013-03-31 10:00:00,
2013-03-31 05:15:00,45.6,44.0,29.86,North,355,6.0,10.0,92,0.00,,,0.00,weatherlink.com 1.10,2013-03-31 10:15:00,
2013-03-31 05:30:00,45.3,43.0,29.86,NW,325,1.0,9.0,92,0.00,,,0.00,weatherlink.com 1.10,2013-03-31 10:30:00,
2013-03-31 05:45:00,45.0,43.0,29.86,NW,325,2.0,6.0,91,0.00,,,0.00,weatherlink.com 1.10,2013-03-31 10:45:00,
2013-03-31 06:00:00,44.6,42.0,29.85,NNW,345,5.0,6.0,90,0.00,,,0.00,weatherlink.com 1.10,2013-03-31 11:00:00,
2013-03-31 06:15:00,44.3,42.0,29.84,NNW,328,2.0,7.0,91,0.00,,,0.00,weatherlink.com 1.10,2013-03-31 11:15:00,
2013-03-31 06:30:00,43.9,42.0,29.85,NW,315,3.0,7.0,91,0.00,,,0.00,weatherlink.com 1.10,2013-03-31 11:30:00,
2013-03-31 06:46:00,43.7,41.0,29.85,NW,322,4.0,6.0,91,0.00,,,0.00,weatherlink.com 1.10,2013-03-31 11:46:00,
2013-03-31 07:46:00,43.5,41.0,29.86,NW,309,4.0,8.0,92,0.00,,,0.00,weatherlink.com 1.10,2013-03-31 12:46:00,
2013-03-31 08:01:00,43.8,42.0,29.86,WNW,290,6.0,7.0,92,0.00,,,0.00,weatherlink.com 1.10,2013-03-31 13:01:00,
2013-03-31 08:16:00,43.7,42.0,29.87,NNW,327,3.0,7.0,92,0.00,,,0.00,weatherlink.com 1.10,2013-03-31 13:16:00,
2013-03-31 08:46:00,43.7,42.0,29.86,WNW,288,2.0,7.0,93,0.00,,,0.00,weatherlink.com 1.10,2013-03-31 13:46:00,
2013-03-31 09:01:00,44.1,42.0,29.86,West,265,6.0,9.0,93,0.00,,,0.00,weatherlink.com 1.10,2013-03-31 14:01:00,
2013-03-31 09:16:00,44.9,43.0,29.86,North,360,6.0,9.0,93,0.00,,,0.00,weatherlink.com 1.10,2013-03-31 14:16:00,
2013-03-31 09:46:00,47.6,43.0,29.86,NW,307,4.0,12.0,85,0.00,,,0.00,weatherlink.com 1.10,2013-03-31 14:46:00,
2013-03-31 10:02:00,49.6,44.0,29.85,West,274,4.0,8.0,82,0.00,,,0.00,weatherlink.com 1.10,2013-03-31 15:02:00,
2013-03-31 10:17:00,50.7,43.0,29.84,NW,318,7.0,12.0,75,0.00,,,0.00,weatherlink.com 1.10,2013-03-31 15:17:00,
2013-03-31 10:32:00,52.1,41.0,29.84,NNW,340,4.0,11.0,67,0.00,,,0.00,weatherlink.com 1.10,2013-03-31 15:32:00,
2013-03-31 10:47:00,53.1,42.0,29.84,NNW,346,3.0,11.0,67,0.00,,,0.00,weatherlink.com 1.10,2013-03-31 15:47:00,
2013-03-31 11:02:00,54.4,40.0,29.84,NW,315,3.0,12.0,59,0.00,,,0.00,weatherlink.com 1.10,2013-03-31 16:02:00,
2013-03-31 11:17:00,55.7,40.0,29.83,NW,307,6.0,13.0,57,0.00,,,0.00,weatherlink.com 1.10,2013-03-31 16:17:00,
2013-03-31 11:32:00,56.5,40.0,29.83,WSW,250,5.0,12.0,54,0.00,,,0.00,weatherlink.com 1.10,2013-03-31 16:32:00,
2013-03-31 11:47:00,57.4,39.0,29.83,NW,315,8.0,13.0,50,0.00,,,0.00,weatherlink.com 1.10,2013-03-31 16:47:00,
2013-03-31 12:02:00,57.1,39.0,29.83,WNW,283,6.0,15.0,51,0.00,,,0.00,weatherlink.com 1.10,2013-03-31 17:02:00,
2013-03-31 12:17:00,57.5,39.0,29.83,North,5,9.0,16.0,51,0.00,,,0.00,weatherlink.com 1.10,2013-03-31 17:17:00,
2013-03-31 12:32:00,58.2,38.0,29.82,NNW,327,7.0,15.0,47,0.00,,,0.00,weatherlink.com 1.10,2013-03-31 17:32:00,
2013-03-31 12:47:00,57.8,39.0,29.82,West,262,7.0,16.0,49,0.00,,,0.00,weatherlink.com 1.10,2013-03-31 17:47:00,
2013-03-31 13:02:00,58.8,39.0,29.82,NW,323,9.0,18.0,48,0.00,,,0.00,weatherlink.com 1.10,2013-03-31 18:02:00,
2013-03-31 13:17:00,57.3,39.0,29.82,North,360,5.0,20.0,50,0.00,,,0.00,weatherlink.com 1.10,2013-03-31 18:17:00,
2013-03-31 13:33:00,57.8,36.0,29.82,WNW,299,8.0,22.0,45,0.00,,,0.00,weatherlink.com 1.10,2013-03-31 18:33:00,
2013-03-31 13:48:00,59.0,38.0,29.82,WNW,301,6.0,17.0,45,0.00,,,0.00,weatherlink.com 1.10,2013-03-31 18:48:00,
2013-03-31 14:03:00,58.8,37.0,29.82,NW,317,13.0,21.0,45,0.00,,,0.00,weatherlink.com 1.10,2013-03-31 19:03:00,
2013-03-31 14:18:00,59.9,37.0,29.82,North,5,5.0,19.0,43,0.00,,,0.00,weatherlink.com 1.10,2013-03-31 19:18:00,
2013-03-31 14:33:00,58.1,33.0,29.82,WNW,301,13.0,22.0,39,0.00,,,0.00,weatherlink.com 1.10,2013-03-31 19:33:00,
2013-03-31 14:48:00,58.4,33.0,29.82,NNW,329,13.0,18.0,39,0.00,,,0.00,weatherlink.com 1.10,2013-03-31 19:48:00,
2013-03-31 15:03:00,57.6,31.0,29.82,NNW,328,12.0,22.0,37,0.00,,,0.00,weatherlink.com 1.10,2013-03-31 20:03:00,
2013-03-31 15:18:00,56.9,33.0,29.83,WNW,301,11.0,19.0,40,0.00,,,0.00,weatherlink.com 1.10,2013-03-31 20:18:00,
2013-03-31 15:33:00,56.2,30.0,29.83,NW,325,17.0,20.0,37,0.00,,,0.00,weatherlink.com 1.10,2013-03-31 20:33:00,
2013-03-31 15:48:00,56.3,31.0,29.83,NNW,327,10.0,21.0,39,0.00,,,0.00,weatherlink.com 1.10,2013-03-31 20:48:00,
2013-03-31 16:03:00,55.8,32.0,29.83,NNW,344,10.0,18.0,40,0.00,,,0.00,weatherlink.com 1.10,2013-03-31 21:03:00,
2013-03-31 16:18:00,55.4,34.0,29.83,NW,324,5.0,20.0,44,0.00,,,0.00,weatherlink.com 1.10,2013-03-31 21:18:00,
2013-03-31 16:33:00,55.3,33.0,29.84,NNW,328,13.0,19.0,43,0.00,,,0.00,weatherlink.com 1.10,2013-03-31 21:33:00,
2013-03-31 16:49:00,55.0,33.0,29.84,NNW,331,9.0,19.0,43,0.00,,,0.00,weatherlink.com 1.10,2013-03-31 21:49:00,
2013-03-31 17:04:00,54.4,32.0,29.84,NW,309,7.0,20.0,42,0.00,,,0.00,weatherlink.com 1.10,2013-03-31 22:04:00,
2013-03-31 17:19:00,54.3,31.0,29.84,NW,323,8.0,19.0,41,0.00,,,0.00,weatherlink.com 1.10,2013-03-31 22:19:00,
2013-03-31 17:34:00,53.9,30.0,29.84,NNW,335,14.0,17.0,40,0.00,,,0.00,weatherlink.com 1.10,2013-03-31 22:34:00,
2013-03-31 17:49:00,53.2,30.0,29.85,NW,321,9.0,20.0,41,0.00,,,0.00,weatherlink.com 1.10,2013-03-31 22:49:00,
2013-03-31 18:04:00,52.1,28.0,29.86,NW,313,10.0,22.0,39,0.00,,,0.00,weatherlink.com 1.10,2013-03-31 23:04:00,
2013-03-31 18:19:00,51.5,26.0,29.87,NNW,340,6.0,15.0,37,0.00,,,0.00,weatherlink.com 1.10,2013-03-31 23:19:00,
2013-03-31 18:34:00,50.3,30.0,29.88,North,350,7.0,20.0,45,0.00,,,0.00,weatherlink.com 1.10,2013-03-31 23:34:00,
2013-03-31 18:49:00,48.0,34.0,29.88,NW,306,9.0,17.0,59,0.00,,,0.00,weatherlink.com 1.10,2013-03-31 23:49:00,
2013-03-31 19:04:00,46.7,32.0,29.88,NW,314,7.0,17.0,58,0.00,,,0.00,weatherlink.com 1.10,2013-04-01 00:04:00,
2013-03-31 19:19:00,45.5,30.0,29.89,NW,317,8.0,16.0,56,0.00,,,0.00,weatherlink.com 1.10,2013-04-01 00:19:00,
2013-03-31 19:34:00,44.5,30.0,29.89,NW,319,9.0,16.0,57,0.00,,,0.00,weatherlink.com 1.10,2013-04-01 00:34:00,
2013-03-31 19:49:00,43.6,30.0,29.90,NW,321,10.0,14.0,60,0.00,,,0.00,weatherlink.com 1.10,2013-04-01 00:49:00,
2013-03-31 20:05:00,42.9,30.0,29.91,NNE,13,6.0,16.0,61,0.00,,,0.00,weatherlink.com 1.10,2013-04-01 01:05:00,
2013-03-31 20:20:00,42.6,30.0,29.92,NNW,337,5.0,13.0,61,0.00,,,0.00,weatherlink.com 1.10,2013-04-01 01:20:00,
2013-03-31 20:35:00,42.1,29.0,29.92,NW,304,4.0,13.0,61,0.00,,,0.00,weatherlink.com 1.10,2013-04-01 01:35:00,
2013-03-31 20:50:00,41.7,29.0,29.93,WNW,302,6.0,15.0,62,0.00,,,0.00,weatherlink.com 1.10,2013-04-01 01:50:00,
2013-03-31 21:05:00,41.6,30.0,29.93,North,351,8.0,14.0,63,0.00,,,0.00,weatherlink.com 1.10,2013-04-01 02:05:00,
2013-03-31 21:20:00,41.1,30.0,29.93,NW,319,10.0,15.0,64,0.00,,,0.00,weatherlink.com 1.10,2013-04-01 02:20:00,
2013-03-31 21:35:00,40.6,29.0,29.94,NNW,333,8.0,14.0,64,0.00,,,0.00,weatherlink.com 1.10,2013-04-01 02:35:00,
2013-03-31 21:50:00,39.8,28.0,29.94,NNW,338,6.0,14.0,64,0.00,,,0.00,weatherlink.com 1.10,2013-04-01 02:50:00,
2013-03-31 22:05:00,39.3,28.0,29.95,NNW,338,7.0,14.0,65,0.00,,,0.00,weatherlink.com 1.10,2013-04-01 03:05:00,
2013-03-31 22:20:00,38.8,28.0,29.96,NNW,333,9.0,11.0,65,0.00,,,0.00,weatherlink.com 1.10,2013-04-01 03:20:00,
2013-03-31 22:35:00,38.2,28.0,29.97,NW,310,8.0,11.0,67,0.00,,,0.00,weatherlink.com 1.10,2013-04-01 03:35:00,
2013-03-31 22:50:00,37.5,28.0,29.96,NW,322,3.0,11.0,69,0.00,,,0.00,weatherlink.com 1.10,2013-04-01 03:50:00,
2013-03-31 23:05:00,37.1,28.0,29.96,North,5,3.0,12.0,70,0.00,,,0.00,weatherlink.com 1.10,2013-04-01 04:05:00,
2013-03-31 23:21:00,37.0,27.0,29.97,NNW,336,5.0,14.0,67,0.00,,,0.00,weatherlink.com 1.10,2013-04-01 04:21:00,
2013-03-31 23:36:00,37.1,26.0,29.98,NW,316,4.0,17.0,65,0.00,,,0.00,weatherlink.com 1.10,2013-04-01 04:36:00,
2013-03-31 23:51:00,37.0,26.0,29.98,NNW,338,3.0,15.0,64,0.00,,,0.00,weatherlink.com 1.10,2013-04-01 04:51:00,